sensor_id;sensor_type;location;lat;lon;timestamp;P1;durP1;ratioP1;P2;durP2;ratioP2
42666;SDS011;28280;49.646;14.130;2023-04-15T00:06:23;0.57;;;0.50;;
42666;SDS011;28280;49.646;14.130;2023-04-15T00:16:45;0.50;;;0.50;;
42666;SDS011;28280;49.646;14.130;2023-04-15T00:27:07;0.65;;;0.65;;
42666;SDS011;28280;49.646;14.130;2023-04-15T00:37:28;1.10;;;0.55;;
42666;SDS011;28280;49.646;14.130;2023-04-15T00:47:49;0.75;;;0.60;;
42666;SDS011;28280;49.646;14.130;2023-04-15T00:58:11;0.95;;;0.60;;
42666;SDS011;28280;49.646;14.130;2023-04-15T01:08:34;1.17;;;0.63;;
42666;SDS011;28280;49.646;14.130;2023-04-15T01:18:56;0.70;;;0.60;;
42666;SDS011;28280;49.646;14.130;2023-04-15T01:29:18;0.80;;;0.60;;
42666;SDS011;28280;49.646;14.130;2023-04-15T01:39:39;0.75;;;0.65;;
42666;SDS011;28280;49.646;14.130;2023-04-15T01:50:01;0.70;;;0.60;;
42666;SDS011;28280;49.646;14.130;2023-04-15T02:00:22;0.80;;;0.57;;
42666;SDS011;28280;49.646;14.130;2023-04-15T02:10:45;0.75;;;0.65;;
42666;SDS011;28280;49.646;14.130;2023-04-15T02:21:06;0.68;;;0.63;;
42666;SDS011;28280;49.646;14.130;2023-04-15T02:31:31;0.55;;;0.50;;
42666;SDS011;28280;49.646;14.130;2023-04-15T02:41:56;0.80;;;0.60;;
42666;SDS011;28280;49.646;14.130;2023-04-15T02:52:20;0.50;;;0.50;;
42666;SDS011;28280;49.646;14.130;2023-04-15T03:02:42;0.80;;;0.70;;
42666;SDS011;28280;49.646;14.130;2023-04-15T03:13:04;0.80;;;0.60;;
42666;SDS011;28280;49.646;14.130;2023-04-15T03:23:25;1.88;;;0.73;;
42666;SDS011;28280;49.646;14.130;2023-04-15T03:33:48;0.68;;;0.60;;
42666;SDS011;28280;49.646;14.130;2023-04-15T03:44:10;0.40;;;0.40;;
42666;SDS011;28280;49.646;14.130;2023-04-15T03:54:31;2.15;;;0.73;;
42666;SDS011;28280;49.646;14.130;2023-04-15T04:04:52;0.70;;;0.60;;
42666;SDS011;28280;49.646;14.130;2023-04-15T04:15:13;0.60;;;0.40;;
42666;SDS011;28280;49.646;14.130;2023-04-15T04:25:35;0.68;;;0.60;;
42666;SDS011;28280;49.646;14.130;2023-04-15T04:35:57;0.65;;;0.50;;
42666;SDS011;28280;49.646;14.130;2023-04-15T04:46:18;0.55;;;0.50;;
42666;SDS011;28280;49.646;14.130;2023-04-15T04:56:40;0.55;;;0.55;;
42666;SDS011;28280;49.646;14.130;2023-04-15T05:07:01;0.60;;;0.60;;
42666;SDS011;28280;49.646;14.130;2023-04-15T05:17:22;1.15;;;0.63;;
42666;SDS011;28280;49.646;14.130;2023-04-15T05:27:44;0.60;;;0.50;;
42666;SDS011;28280;49.646;14.130;2023-04-15T05:38:05;0.50;;;0.50;;
42666;SDS011;28280;49.646;14.130;2023-04-15T05:48:26;0.50;;;0.50;;
42666;SDS011;28280;49.646;14.130;2023-04-15T05:58:48;0.98;;;0.70;;
42666;SDS011;28280;49.646;14.130;2023-04-15T06:09:11;0.88;;;0.68;;
42666;SDS011;28280;49.646;14.130;2023-04-15T06:19:33;3.70;;;2.45;;
42666;SDS011;28280;49.646;14.130;2023-04-15T06:29:54;1.33;;;0.70;;
42666;SDS011;28280;49.646;14.130;2023-04-15T06:40:15;1.20;;;1.00;;
42666;SDS011;28280;49.646;14.130;2023-04-15T06:50:37;0.98;;;0.88;;
42666;SDS011;28280;49.646;14.130;2023-04-15T07:00:58;1.55;;;0.90;;
42666;SDS011;28280;49.646;14.130;2023-04-15T07:11:20;1.15;;;0.90;;
42666;SDS011;28280;49.646;14.130;2023-04-15T07:21:41;1.13;;;0.90;;
42666;SDS011;28280;49.646;14.130;2023-04-15T07:32:03;1.00;;;0.75;;
42666;SDS011;28280;49.646;14.130;2023-04-15T07:42:24;0.88;;;0.80;;
42666;SDS011;28280;49.646;14.130;2023-04-15T07:52:46;1.10;;;0.70;;
42666;SDS011;28280;49.646;14.130;2023-04-15T08:03:07;1.55;;;0.80;;
42666;SDS011;28280;49.646;14.130;2023-04-15T08:13:29;1.20;;;0.80;;
42666;SDS011;28280;49.646;14.130;2023-04-15T08:23:51;0.90;;;0.80;;
42666;SDS011;28280;49.646;14.130;2023-04-15T08:34:12;1.30;;;1.00;;
42666;SDS011;28280;49.646;14.130;2023-04-15T08:44:34;0.90;;;0.75;;
42666;SDS011;28280;49.646;14.130;2023-04-15T08:54:58;1.20;;;0.90;;
42666;SDS011;28280;49.646;14.130;2023-04-15T09:05:20;0.98;;;0.70;;
42666;SDS011;28280;49.646;14.130;2023-04-15T09:15:42;0.90;;;0.70;;
42666;SDS011;28280;49.646;14.130;2023-04-15T09:26:04;1.80;;;0.90;;
42666;SDS011;28280;49.646;14.130;2023-04-15T09:36:26;2.67;;;0.77;;
42666;SDS011;28280;49.646;14.130;2023-04-15T09:46:51;1.27;;;0.90;;
42666;SDS011;28280;49.646;14.130;2023-04-15T09:57:12;0.77;;;0.70;;
42666;SDS011;28280;49.646;14.130;2023-04-15T10:07:33;1.80;;;1.00;;
42666;SDS011;28280;49.646;14.130;2023-04-15T10:17:55;1.08;;;0.80;;
42666;SDS011;28280;49.646;14.130;2023-04-15T10:28:16;1.77;;;0.88;;
42666;SDS011;28280;49.646;14.130;2023-04-15T10:38:38;1.20;;;0.90;;
42666;SDS011;28280;49.646;14.130;2023-04-15T10:49:08;0.80;;;0.70;;
42666;SDS011;28280;49.646;14.130;2023-04-15T10:59:37;1.10;;;0.80;;
42666;SDS011;28280;49.646;14.130;2023-04-15T11:20:41;0.88;;;0.70;;
42666;SDS011;28280;49.646;14.130;2023-04-15T11:31:10;1.70;;;1.00;;
42666;SDS011;28280;49.646;14.130;2023-04-15T11:41:36;1.33;;;0.90;;
42666;SDS011;28280;49.646;14.130;2023-04-15T11:51:57;1.50;;;0.90;;
42666;SDS011;28280;49.646;14.130;2023-04-15T12:02:18;0.98;;;0.80;;
42666;SDS011;28280;49.646;14.130;2023-04-15T12:12:40;0.93;;;0.85;;
42666;SDS011;28280;49.646;14.130;2023-04-15T12:23:05;1.48;;;1.08;;
42666;SDS011;28280;49.646;14.130;2023-04-15T12:33:33;1.15;;;0.95;;
42666;SDS011;28280;49.646;14.130;2023-04-15T12:43:54;1.70;;;1.00;;
42666;SDS011;28280;49.646;14.130;2023-04-15T12:54:16;1.20;;;1.10;;
42666;SDS011;28280;49.646;14.130;2023-04-15T13:04:37;1.40;;;1.10;;
42666;SDS011;28280;49.646;14.130;2023-04-15T13:14:59;1.30;;;0.90;;
42666;SDS011;28280;49.646;14.130;2023-04-15T13:25:20;1.13;;;1.00;;
42666;SDS011;28280;49.646;14.130;2023-04-15T13:35:41;1.45;;;1.15;;
42666;SDS011;28280;49.646;14.130;2023-04-15T13:46:02;1.65;;;1.20;;
42666;SDS011;28280;49.646;14.130;2023-04-15T13:56:24;1.30;;;1.00;;
42666;SDS011;28280;49.646;14.130;2023-04-15T14:06:46;1.58;;;1.00;;
42666;SDS011;28280;49.646;14.130;2023-04-15T14:17:07;2.13;;;1.27;;
42666;SDS011;28280;49.646;14.130;2023-04-15T14:27:28;2.53;;;1.40;;
42666;SDS011;28280;49.646;14.130;2023-04-15T14:37:49;1.77;;;1.23;;
42666;SDS011;28280;49.646;14.130;2023-04-15T14:48:10;1.88;;;1.17;;
42666;SDS011;28280;49.646;14.130;2023-04-15T14:58:32;1.90;;;1.42;;
42666;SDS011;28280;49.646;14.130;2023-04-15T15:08:53;2.20;;;1.40;;
42666;SDS011;28280;49.646;14.130;2023-04-15T15:19:15;1.98;;;1.50;;
42666;SDS011;28280;49.646;14.130;2023-04-15T15:29:37;2.47;;;1.38;;
42666;SDS011;28280;49.646;14.130;2023-04-15T15:39:58;2.25;;;1.50;;
42666;SDS011;28280;49.646;14.130;2023-04-15T15:50:20;1.85;;;1.45;;
42666;SDS011;28280;49.646;14.130;2023-04-15T16:00:42;1.48;;;1.27;;
42666;SDS011;28280;49.646;14.130;2023-04-15T16:11:03;2.25;;;1.30;;
42666;SDS011;28280;49.646;14.130;2023-04-15T16:21:25;2.65;;;1.58;;
42666;SDS011;28280;49.646;14.130;2023-04-15T16:31:46;3.38;;;1.73;;
42666;SDS011;28280;49.646;14.130;2023-04-15T16:42:08;2.88;;;1.85;;
42666;SDS011;28280;49.646;14.130;2023-04-15T16:52:29;1.70;;;1.30;;
42666;SDS011;28280;49.646;14.130;2023-04-15T17:02:51;2.10;;;1.50;;
42666;SDS011;28280;49.646;14.130;2023-04-15T17:13:12;1.67;;;1.17;;
42666;SDS011;28280;49.646;14.130;2023-04-15T17:23:33;1.63;;;1.20;;
42666;SDS011;28280;49.646;14.130;2023-04-15T17:33:55;1.80;;;1.30;;
42666;SDS011;28280;49.646;14.130;2023-04-15T17:44:29;2.17;;;1.70;;
42666;SDS011;28280;49.646;14.130;2023-04-15T17:54:51;2.42;;;1.52;;
42666;SDS011;28280;49.646;14.130;2023-04-15T18:05:12;2.05;;;1.65;;
42666;SDS011;28280;49.646;14.130;2023-04-15T18:15:34;2.53;;;1.65;;
42666;SDS011;28280;49.646;14.130;2023-04-15T18:25:56;1.95;;;1.33;;
42666;SDS011;28280;49.646;14.130;2023-04-15T18:36:18;2.22;;;1.60;;
42666;SDS011;28280;49.646;14.130;2023-04-15T18:46:39;3.70;;;2.13;;
42666;SDS011;28280;49.646;14.130;2023-04-15T18:57:00;4.97;;;2.30;;
42666;SDS011;28280;49.646;14.130;2023-04-15T19:07:24;2.90;;;2.13;;
42666;SDS011;28280;49.646;14.130;2023-04-15T19:17:45;4.25;;;2.28;;
42666;SDS011;28280;49.646;14.130;2023-04-15T19:28:07;3.80;;;2.38;;
42666;SDS011;28280;49.646;14.130;2023-04-15T19:38:28;4.47;;;2.30;;
42666;SDS011;28280;49.646;14.130;2023-04-15T19:48:51;3.15;;;2.00;;
42666;SDS011;28280;49.646;14.130;2023-04-15T19:59:13;2.83;;;2.10;;
42666;SDS011;28280;49.646;14.130;2023-04-15T20:09:35;2.78;;;2.25;;
42666;SDS011;28280;49.646;14.130;2023-04-15T20:19:57;3.38;;;2.22;;
42666;SDS011;28280;49.646;14.130;2023-04-15T20:30:18;2.25;;;1.90;;
42666;SDS011;28280;49.646;14.130;2023-04-15T20:40:40;3.80;;;2.45;;
42666;SDS011;28280;49.646;14.130;2023-04-15T20:51:01;4.05;;;2.50;;
42666;SDS011;28280;49.646;14.130;2023-04-15T21:01:23;3.28;;;2.17;;
42666;SDS011;28280;49.646;14.130;2023-04-15T21:11:45;4.28;;;2.80;;
42666;SDS011;28280;49.646;14.130;2023-04-15T21:22:21;3.10;;;2.00;;
42666;SDS011;28280;49.646;14.130;2023-04-15T21:32:42;3.92;;;2.47;;
42666;SDS011;28280;49.646;14.130;2023-04-15T21:43:03;3.28;;;1.88;;
42666;SDS011;28280;49.646;14.130;2023-04-15T21:53:25;4.07;;;2.50;;
42666;SDS011;28280;49.646;14.130;2023-04-15T22:03:46;4.43;;;2.50;;
42666;SDS011;28280;49.646;14.130;2023-04-15T22:14:08;3.42;;;2.30;;
42666;SDS011;28280;49.646;14.130;2023-04-15T22:24:29;3.35;;;2.50;;
42666;SDS011;28280;49.646;14.130;2023-04-15T22:35:00;4.07;;;2.22;;
42666;SDS011;28280;49.646;14.130;2023-04-15T22:45:21;3.35;;;2.35;;
42666;SDS011;28280;49.646;14.130;2023-04-15T22:55:44;4.07;;;2.72;;
42666;SDS011;28280;49.646;14.130;2023-04-15T23:06:06;3.13;;;2.38;;
42666;SDS011;28280;49.646;14.130;2023-04-15T23:16:27;4.78;;;2.63;;
42666;SDS011;28280;49.646;14.130;2023-04-15T23:26:49;3.08;;;2.42;;
42666;SDS011;28280;49.646;14.130;2023-04-15T23:37:13;4.10;;;3.05;;
42666;SDS011;28280;49.646;14.130;2023-04-15T23:47:37;4.30;;;2.50;;
42666;SDS011;28280;49.646;14.130;2023-04-15T23:57:59;3.50;;;2.47;;
